sensor_id;sensor_type;location;lat;lon;timestamp;P1;durP1;ratioP1;P2;durP2;ratioP2
18274;SDS011;19470;49.322;7.218;2022-12-07T00:02:23;9.87;;;6.67;;
18274;SDS011;19470;49.322;7.218;2022-12-07T00:04:50;10.17;;;5.87;;
18274;SDS011;19470;49.322;7.218;2022-12-07T00:07:16;9.97;;;6.37;;
18274;SDS011;19470;49.322;7.218;2022-12-07T00:09:43;11.97;;;7.37;;
18274;SDS011;19470;49.322;7.218;2022-12-07T00:12:09;10.15;;;6.60;;
18274;SDS011;19470;49.322;7.218;2022-12-07T00:14:37;10.30;;;7.20;;
18274;SDS011;19470;49.322;7.218;2022-12-07T00:17:04;9.97;;;6.80;;
18274;SDS011;19470;49.322;7.218;2022-12-07T00:19:30;13.27;;;7.20;;
18274;SDS011;19470;49.322;7.218;2022-12-07T00:21:57;11.97;;;7.37;;
18274;SDS011;19470;49.322;7.218;2022-12-07T00:24:23;14.03;;;7.37;;
18274;SDS011;19470;49.322;7.218;2022-12-07T00:26:50;13.83;;;7.60;;
18274;SDS011;19470;49.322;7.218;2022-12-07T00:29:17;14.60;;;8.07;;
18274;SDS011;19470;49.322;7.218;2022-12-07T00:31:46;12.87;;;8.23;;
18274;SDS011;19470;49.322;7.218;2022-12-07T00:34:14;47.57;;;20.30;;
18274;SDS011;19470;49.322;7.218;2022-12-07T00:36:42;21.57;;;10.73;;
18274;SDS011;19470;49.322;7.218;2022-12-07T00:39:08;13.93;;;8.50;;
18274;SDS011;19470;49.322;7.218;2022-12-07T00:41:35;11.47;;;7.30;;
18274;SDS011;19470;49.322;7.218;2022-12-07T00:44:02;10.23;;;6.80;;
18274;SDS011;19470;49.322;7.218;2022-12-07T00:46:28;11.77;;;6.90;;
18274;SDS011;19470;49.322;7.218;2022-12-07T00:48:57;10.27;;;7.07;;
18274;SDS011;19470;49.322;7.218;2022-12-07T00:51:24;13.13;;;7.30;;
18274;SDS011;19470;49.322;7.218;2022-12-07T00:53:51;12.10;;;7.90;;
18274;SDS011;19470;49.322;7.218;2022-12-07T00:56:19;12.90;;;8.60;;
18274;SDS011;19470;49.322;7.218;2022-12-07T00:58:51;11.90;;;7.63;;
18274;SDS011;19470;49.322;7.218;2022-12-07T01:01:18;12.73;;;7.60;;
18274;SDS011;19470;49.322;7.218;2022-12-07T01:03:45;12.95;;;7.45;;
18274;SDS011;19470;49.322;7.218;2022-12-07T01:06:14;11.57;;;7.23;;
18274;SDS011;19470;49.322;7.218;2022-12-07T01:08:42;13.18;;;7.82;;
18274;SDS011;19470;49.322;7.218;2022-12-07T01:11:11;10.93;;;7.50;;
18274;SDS011;19470;49.322;7.218;2022-12-07T01:13:39;12.23;;;7.80;;
18274;SDS011;19470;49.322;7.218;2022-12-07T01:16:06;13.03;;;7.47;;
18274;SDS011;19470;49.322;7.218;2022-12-07T01:18:34;16.00;;;8.10;;
18274;SDS011;19470;49.322;7.218;2022-12-07T01:21:02;14.73;;;8.27;;
18274;SDS011;19470;49.322;7.218;2022-12-07T01:23:32;12.40;;;7.77;;
18274;SDS011;19470;49.322;7.218;2022-12-07T01:26:00;12.03;;;7.70;;
18274;SDS011;19470;49.322;7.218;2022-12-07T01:28:29;13.80;;;8.17;;
18274;SDS011;19470;49.322;7.218;2022-12-07T01:30:57;12.87;;;8.13;;
18274;SDS011;19470;49.322;7.218;2022-12-07T01:33:26;15.80;;;8.13;;
18274;SDS011;19470;49.322;7.218;2022-12-07T01:35:53;13.80;;;7.73;;
18274;SDS011;19470;49.322;7.218;2022-12-07T01:38:20;11.23;;;7.80;;
18274;SDS011;19470;49.322;7.218;2022-12-07T01:40:54;11.70;;;7.43;;
18274;SDS011;19470;49.322;7.218;2022-12-07T01:43:21;12.27;;;7.70;;
18274;SDS011;19470;49.322;7.218;2022-12-07T01:45:49;11.53;;;7.47;;
18274;SDS011;19470;49.322;7.218;2022-12-07T01:48:16;12.93;;;8.03;;
18274;SDS011;19470;49.322;7.218;2022-12-07T01:50:46;14.67;;;7.87;;
18274;SDS011;19470;49.322;7.218;2022-12-07T01:53:15;11.57;;;7.33;;
18274;SDS011;19470;49.322;7.218;2022-12-07T01:55:44;13.70;;;8.37;;
18274;SDS011;19470;49.322;7.218;2022-12-07T01:58:16;14.03;;;8.50;;
18274;SDS011;19470;49.322;7.218;2022-12-07T02:00:42;14.17;;;7.90;;
18274;SDS011;19470;49.322;7.218;2022-12-07T02:03:09;11.20;;;7.60;;
18274;SDS011;19470;49.322;7.218;2022-12-07T02:05:41;14.03;;;7.83;;
18274;SDS011;19470;49.322;7.218;2022-12-07T02:08:08;14.03;;;8.03;;
18274;SDS011;19470;49.322;7.218;2022-12-07T02:10:37;13.23;;;7.77;;
18274;SDS011;19470;49.322;7.218;2022-12-07T02:13:06;13.70;;;8.40;;
18274;SDS011;19470;49.322;7.218;2022-12-07T02:15:40;14.03;;;9.17;;
18274;SDS011;19470;49.322;7.218;2022-12-07T02:18:19;14.20;;;9.17;;
18274;SDS011;19470;49.322;7.218;2022-12-07T02:20:51;17.40;;;9.00;;
18274;SDS011;19470;49.322;7.218;2022-12-07T02:23:38;13.80;;;8.43;;
18274;SDS011;19470;49.322;7.218;2022-12-07T02:29:25;16.83;;;9.23;;
18274;SDS011;19470;49.322;7.218;2022-12-07T02:31:56;38.17;;;20.23;;
18274;SDS011;19470;49.322;7.218;2022-12-07T02:34:33;15.20;;;10.27;;
18274;SDS011;19470;49.322;7.218;2022-12-07T02:37:08;14.67;;;8.73;;
18274;SDS011;19470;49.322;7.218;2022-12-07T02:39:40;17.67;;;10.00;;
18274;SDS011;19470;49.322;7.218;2022-12-07T02:42:12;13.40;;;8.90;;
18274;SDS011;19470;49.322;7.218;2022-12-07T02:44:43;16.30;;;8.90;;
18274;SDS011;19470;49.322;7.218;2022-12-07T02:47:12;16.60;;;9.60;;
18274;SDS011;19470;49.322;7.218;2022-12-07T02:49:41;17.50;;;9.10;;
18274;SDS011;19470;49.322;7.218;2022-12-07T02:52:08;17.10;;;8.63;;
18274;SDS011;19470;49.322;7.218;2022-12-07T02:54:35;15.70;;;8.97;;
18274;SDS011;19470;49.322;7.218;2022-12-07T02:57:03;19.23;;;10.23;;
18274;SDS011;19470;49.322;7.218;2022-12-07T02:59:45;20.30;;;9.33;;
18274;SDS011;19470;49.322;7.218;2022-12-07T03:02:25;17.17;;;9.87;;
18274;SDS011;19470;49.322;7.218;2022-12-07T03:05:04;13.60;;;8.27;;
18274;SDS011;19470;49.322;7.218;2022-12-07T03:07:43;15.10;;;9.43;;
18274;SDS011;19470;49.322;7.218;2022-12-07T03:10:17;13.50;;;8.37;;
18274;SDS011;19470;49.322;7.218;2022-12-07T03:12:52;14.77;;;9.10;;
18274;SDS011;19470;49.322;7.218;2022-12-07T03:15:29;14.67;;;9.23;;
18274;SDS011;19470;49.322;7.218;2022-12-07T03:18:00;14.77;;;9.03;;
18274;SDS011;19470;49.322;7.218;2022-12-07T03:20:29;17.50;;;9.50;;
18274;SDS011;19470;49.322;7.218;2022-12-07T03:22:58;17.43;;;10.00;;
18274;SDS011;19470;49.322;7.218;2022-12-07T03:25:25;15.53;;;9.13;;
18274;SDS011;19470;49.322;7.218;2022-12-07T03:27:54;16.43;;;9.27;;
18274;SDS011;19470;49.322;7.218;2022-12-07T03:30:26;14.27;;;8.47;;
18274;SDS011;19470;49.322;7.218;2022-12-07T03:32:59;15.43;;;8.50;;
18274;SDS011;19470;49.322;7.218;2022-12-07T03:35:31;16.60;;;9.10;;
18274;SDS011;19470;49.322;7.218;2022-12-07T03:38:02;15.73;;;9.57;;
18274;SDS011;19470;49.322;7.218;2022-12-07T03:40:35;14.17;;;8.77;;
18274;SDS011;19470;49.322;7.218;2022-12-07T03:43:06;17.53;;;9.70;;
18274;SDS011;19470;49.322;7.218;2022-12-07T03:45:37;14.97;;;9.43;;
18274;SDS011;19470;49.322;7.218;2022-12-07T03:48:07;16.60;;;9.07;;
18274;SDS011;19470;49.322;7.218;2022-12-07T03:50:38;18.17;;;10.30;;
18274;SDS011;19470;49.322;7.218;2022-12-07T03:53:11;18.13;;;9.50;;
18274;SDS011;19470;49.322;7.218;2022-12-07T03:55:42;20.77;;;10.87;;
18274;SDS011;19470;49.322;7.218;2022-12-07T03:58:11;21.23;;;11.33;;
18274;SDS011;19470;49.322;7.218;2022-12-07T04:00:43;24.60;;;11.97;;
18274;SDS011;19470;49.322;7.218;2022-12-07T04:03:10;21.73;;;12.20;;
18274;SDS011;19470;49.322;7.218;2022-12-07T04:05:36;24.07;;;12.57;;
18274;SDS011;19470;49.322;7.218;2022-12-07T04:08:03;24.40;;;12.50;;
18274;SDS011;19470;49.322;7.218;2022-12-07T04:10:30;23.20;;;12.87;;
18274;SDS011;19470;49.322;7.218;2022-12-07T04:12:56;23.10;;;11.53;;
18274;SDS011;19470;49.322;7.218;2022-12-07T04:15:23;28.57;;;12.00;;
18274;SDS011;19470;49.322;7.218;2022-12-07T04:17:51;23.60;;;13.03;;
18274;SDS011;19470;49.322;7.218;2022-12-07T04:20:18;25.17;;;12.20;;
18274;SDS011;19470;49.322;7.218;2022-12-07T04:22:45;24.43;;;11.87;;
18274;SDS011;19470;49.322;7.218;2022-12-07T04:25:12;26.37;;;12.63;;
18274;SDS011;19470;49.322;7.218;2022-12-07T04:27:38;22.63;;;12.10;;
18274;SDS011;19470;49.322;7.218;2022-12-07T04:30:05;25.00;;;11.83;;
18274;SDS011;19470;49.322;7.218;2022-12-07T04:32:33;20.47;;;11.33;;
18274;SDS011;19470;49.322;7.218;2022-12-07T04:35:00;22.03;;;11.77;;
18274;SDS011;19470;49.322;7.218;2022-12-07T04:37:27;23.03;;;12.27;;
18274;SDS011;19470;49.322;7.218;2022-12-07T04:39:53;19.80;;;11.67;;
18274;SDS011;19470;49.322;7.218;2022-12-07T04:42:20;23.17;;;12.27;;
18274;SDS011;19470;49.322;7.218;2022-12-07T04:44:46;22.03;;;12.37;;
18274;SDS011;19470;49.322;7.218;2022-12-07T04:47:13;24.63;;;12.73;;
18274;SDS011;19470;49.322;7.218;2022-12-07T04:49:39;20.90;;;12.03;;
18274;SDS011;19470;49.322;7.218;2022-12-07T04:52:07;23.17;;;12.23;;
18274;SDS011;19470;49.322;7.218;2022-12-07T04:54:34;23.13;;;12.20;;
18274;SDS011;19470;49.322;7.218;2022-12-07T04:57:00;24.23;;;13.00;;
18274;SDS011;19470;49.322;7.218;2022-12-07T04:59:27;23.90;;;12.20;;
18274;SDS011;19470;49.322;7.218;2022-12-07T05:01:53;20.07;;;11.50;;
18274;SDS011;19470;49.322;7.218;2022-12-07T05:04:20;19.60;;;11.40;;
18274;SDS011;19470;49.322;7.218;2022-12-07T05:06:46;23.43;;;12.23;;
18274;SDS011;19470;49.322;7.218;2022-12-07T05:09:14;24.73;;;12.23;;
18274;SDS011;19470;49.322;7.218;2022-12-07T05:11:40;23.30;;;12.73;;
18274;SDS011;19470;49.322;7.218;2022-12-07T05:14:09;23.63;;;12.10;;
18274;SDS011;19470;49.322;7.218;2022-12-07T05:16:38;25.37;;;13.67;;
18274;SDS011;19470;49.322;7.218;2022-12-07T05:19:05;21.77;;;11.67;;
18274;SDS011;19470;49.322;7.218;2022-12-07T05:21:32;22.63;;;11.60;;
18274;SDS011;19470;49.322;7.218;2022-12-07T05:23:59;24.73;;;12.27;;
18274;SDS011;19470;49.322;7.218;2022-12-07T05:26:27;22.53;;;12.13;;
18274;SDS011;19470;49.322;7.218;2022-12-07T05:28:54;21.60;;;11.70;;
18274;SDS011;19470;49.322;7.218;2022-12-07T05:31:23;20.13;;;11.47;;
18274;SDS011;19470;49.322;7.218;2022-12-07T05:33:50;22.70;;;11.50;;
18274;SDS011;19470;49.322;7.218;2022-12-07T05:36:16;17.70;;;10.77;;
18274;SDS011;19470;49.322;7.218;2022-12-07T05:38:43;23.23;;;11.63;;
18274;SDS011;19470;49.322;7.218;2022-12-07T05:41:11;20.20;;;11.50;;
18274;SDS011;19470;49.322;7.218;2022-12-07T05:43:55;19.70;;;10.87;;
18274;SDS011;19470;49.322;7.218;2022-12-07T05:46:21;17.40;;;10.60;;
18274;SDS011;19470;49.322;7.218;2022-12-07T05:48:48;24.87;;;10.90;;
18274;SDS011;19470;49.322;7.218;2022-12-07T05:51:15;20.07;;;10.37;;
18274;SDS011;19470;49.322;7.218;2022-12-07T05:53:41;47.27;;;25.90;;
18274;SDS011;19470;49.322;7.218;2022-12-07T05:56:08;44.07;;;20.93;;
18274;SDS011;19470;49.322;7.218;2022-12-07T05:58:34;22.07;;;10.83;;
18274;SDS011;19470;49.322;7.218;2022-12-07T06:01:19;21.73;;;11.57;;
18274;SDS011;19470;49.322;7.218;2022-12-07T06:03:45;20.60;;;11.90;;
18274;SDS011;19470;49.322;7.218;2022-12-07T06:06:12;21.17;;;11.60;;
18274;SDS011;19470;49.322;7.218;2022-12-07T06:08:38;22.10;;;11.10;;
18274;SDS011;19470;49.322;7.218;2022-12-07T06:11:05;17.60;;;10.90;;
18274;SDS011;19470;49.322;7.218;2022-12-07T06:13:49;19.70;;;10.73;;
18274;SDS011;19470;49.322;7.218;2022-12-07T06:16:15;20.73;;;12.23;;
18274;SDS011;19470;49.322;7.218;2022-12-07T06:22:05;20.43;;;10.00;;
18274;SDS011;19470;49.322;7.218;2022-12-07T06:24:32;22.50;;;10.87;;
18274;SDS011;19470;49.322;7.218;2022-12-07T06:26:59;21.70;;;11.30;;
18274;SDS011;19470;49.322;7.218;2022-12-07T06:29:25;20.53;;;11.73;;
18274;SDS011;19470;49.322;7.218;2022-12-07T06:31:52;19.47;;;10.53;;
18274;SDS011;19470;49.322;7.218;2022-12-07T06:34:19;23.30;;;10.60;;
18274;SDS011;19470;49.322;7.218;2022-12-07T06:36:48;20.03;;;11.97;;
18274;SDS011;19470;49.322;7.218;2022-12-07T06:39:18;20.60;;;11.23;;
18274;SDS011;19470;49.322;7.218;2022-12-07T06:41:45;21.87;;;11.07;;
18274;SDS011;19470;49.322;7.218;2022-12-07T06:44:11;20.10;;;11.57;;
18274;SDS011;19470;49.322;7.218;2022-12-07T06:46:38;21.63;;;11.63;;
18274;SDS011;19470;49.322;7.218;2022-12-07T06:49:05;22.17;;;11.47;;
18274;SDS011;19470;49.322;7.218;2022-12-07T06:51:32;28.23;;;12.90;;
18274;SDS011;19470;49.322;7.218;2022-12-07T06:54:00;25.33;;;11.40;;
18274;SDS011;19470;49.322;7.218;2022-12-07T06:56:28;22.57;;;12.80;;
18274;SDS011;19470;49.322;7.218;2022-12-07T06:58:54;21.53;;;12.03;;
18274;SDS011;19470;49.322;7.218;2022-12-07T07:01:21;20.87;;;11.80;;
18274;SDS011;19470;49.322;7.218;2022-12-07T07:03:47;28.35;;;13.68;;
18274;SDS011;19470;49.322;7.218;2022-12-07T07:06:14;25.40;;;13.90;;
18274;SDS011;19470;49.322;7.218;2022-12-07T07:08:41;21.67;;;11.57;;
18274;SDS011;19470;49.322;7.218;2022-12-07T07:11:08;22.03;;;11.73;;
18274;SDS011;19470;49.322;7.218;2022-12-07T07:13:36;20.10;;;11.00;;
18274;SDS011;19470;49.322;7.218;2022-12-07T07:16:03;23.05;;;12.02;;
18274;SDS011;19470;49.322;7.218;2022-12-07T07:18:30;26.87;;;11.30;;
18274;SDS011;19470;49.322;7.218;2022-12-07T07:20:57;33.37;;;18.97;;
18274;SDS011;19470;49.322;7.218;2022-12-07T07:23:24;41.85;;;19.95;;
18274;SDS011;19470;49.322;7.218;2022-12-07T07:25:51;24.38;;;12.05;;
18274;SDS011;19470;49.322;7.218;2022-12-07T07:28:17;20.23;;;11.17;;
18274;SDS011;19470;49.322;7.218;2022-12-07T07:30:45;20.20;;;11.88;;
18274;SDS011;19470;49.322;7.218;2022-12-07T07:33:12;22.30;;;11.80;;
18274;SDS011;19470;49.322;7.218;2022-12-07T07:35:38;22.58;;;12.18;;
18274;SDS011;19470;49.322;7.218;2022-12-07T07:38:05;20.52;;;11.70;;
18274;SDS011;19470;49.322;7.218;2022-12-07T07:40:32;22.27;;;11.30;;
18274;SDS011;19470;49.322;7.218;2022-12-07T07:42:58;21.37;;;12.50;;
18274;SDS011;19470;49.322;7.218;2022-12-07T07:45:25;27.90;;;12.67;;
18274;SDS011;19470;49.322;7.218;2022-12-07T07:47:54;23.90;;;12.73;;
18274;SDS011;19470;49.322;7.218;2022-12-07T07:50:21;25.77;;;12.20;;
18274;SDS011;19470;49.322;7.218;2022-12-07T07:52:47;24.80;;;12.70;;
18274;SDS011;19470;49.322;7.218;2022-12-07T07:55:14;25.05;;;13.32;;
18274;SDS011;19470;49.322;7.218;2022-12-07T07:57:41;23.00;;;13.30;;
18274;SDS011;19470;49.322;7.218;2022-12-07T08:00:08;25.00;;;13.03;;
18274;SDS011;19470;49.322;7.218;2022-12-07T08:02:37;23.30;;;13.32;;
18274;SDS011;19470;49.322;7.218;2022-12-07T08:05:05;26.60;;;13.63;;
18274;SDS011;19470;49.322;7.218;2022-12-07T08:07:33;23.23;;;13.70;;
18274;SDS011;19470;49.322;7.218;2022-12-07T08:09:59;24.97;;;13.27;;
18274;SDS011;19470;49.322;7.218;2022-12-07T08:12:26;24.55;;;13.93;;
18274;SDS011;19470;49.322;7.218;2022-12-07T08:14:52;32.57;;;15.07;;
18274;SDS011;19470;49.322;7.218;2022-12-07T08:17:19;27.33;;;14.17;;
18274;SDS011;19470;49.322;7.218;2022-12-07T08:19:45;27.80;;;14.37;;
18274;SDS011;19470;49.322;7.218;2022-12-07T08:22:13;23.35;;;13.13;;
18274;SDS011;19470;49.322;7.218;2022-12-07T08:24:40;30.73;;;14.18;;
18274;SDS011;19470;49.322;7.218;2022-12-07T08:27:06;26.00;;;13.77;;
18274;SDS011;19470;49.322;7.218;2022-12-07T08:29:33;25.02;;;13.95;;
18274;SDS011;19470;49.322;7.218;2022-12-07T08:31:59;28.65;;;14.63;;
18274;SDS011;19470;49.322;7.218;2022-12-07T08:34:26;27.65;;;14.63;;
18274;SDS011;19470;49.322;7.218;2022-12-07T08:36:53;26.10;;;14.15;;
18274;SDS011;19470;49.322;7.218;2022-12-07T08:39:21;27.38;;;15.57;;
18274;SDS011;19470;49.322;7.218;2022-12-07T08:41:47;31.50;;;15.93;;
18274;SDS011;19470;49.322;7.218;2022-12-07T08:44:14;28.05;;;16.00;;
18274;SDS011;19470;49.322;7.218;2022-12-07T08:46:41;28.38;;;16.30;;
18274;SDS011;19470;49.322;7.218;2022-12-07T08:49:13;28.67;;;15.63;;
18274;SDS011;19470;49.322;7.218;2022-12-07T08:51:42;30.48;;;16.08;;
18274;SDS011;19470;49.322;7.218;2022-12-07T08:54:10;29.98;;;15.38;;
18274;SDS011;19470;49.322;7.218;2022-12-07T08:56:41;30.08;;;16.13;;
18274;SDS011;19470;49.322;7.218;2022-12-07T08:59:09;30.05;;;16.23;;
18274;SDS011;19470;49.322;7.218;2022-12-07T09:01:38;30.42;;;15.73;;
18274;SDS011;19470;49.322;7.218;2022-12-07T09:04:04;32.38;;;16.23;;
18274;SDS011;19470;49.322;7.218;2022-12-07T09:06:31;30.58;;;16.05;;
18274;SDS011;19470;49.322;7.218;2022-12-07T09:08:58;33.08;;;16.40;;
18274;SDS011;19470;49.322;7.218;2022-12-07T09:11:26;30.35;;;15.90;;
18274;SDS011;19470;49.322;7.218;2022-12-07T09:13:54;29.83;;;15.52;;
18274;SDS011;19470;49.322;7.218;2022-12-07T09:16:21;32.03;;;16.30;;
18274;SDS011;19470;49.322;7.218;2022-12-07T09:18:47;30.63;;;15.65;;
18274;SDS011;19470;49.322;7.218;2022-12-07T09:21:14;34.00;;;16.52;;
18274;SDS011;19470;49.322;7.218;2022-12-07T09:23:40;28.48;;;16.58;;
18274;SDS011;19470;49.322;7.218;2022-12-07T09:26:07;31.05;;;17.25;;
18274;SDS011;19470;49.322;7.218;2022-12-07T09:28:34;33.53;;;17.40;;
18274;SDS011;19470;49.322;7.218;2022-12-07T09:31:02;35.63;;;17.45;;
18274;SDS011;19470;49.322;7.218;2022-12-07T09:33:29;30.90;;;17.52;;
18274;SDS011;19470;49.322;7.218;2022-12-07T09:35:56;39.40;;;18.20;;
18274;SDS011;19470;49.322;7.218;2022-12-07T09:38:22;32.25;;;17.13;;
18274;SDS011;19470;49.322;7.218;2022-12-07T09:40:49;33.63;;;17.35;;
18274;SDS011;19470;49.322;7.218;2022-12-07T09:43:17;36.90;;;19.13;;
18274;SDS011;19470;49.322;7.218;2022-12-07T09:45:45;34.35;;;18.15;;
18274;SDS011;19470;49.322;7.218;2022-12-07T09:48:16;34.70;;;18.33;;
18274;SDS011;19470;49.322;7.218;2022-12-07T09:50:45;36.28;;;17.55;;
18274;SDS011;19470;49.322;7.218;2022-12-07T09:53:14;36.70;;;18.38;;
18274;SDS011;19470;49.322;7.218;2022-12-07T09:55:51;36.03;;;17.83;;
18274;SDS011;19470;49.322;7.218;2022-12-07T09:58:19;33.97;;;16.92;;
18274;SDS011;19470;49.322;7.218;2022-12-07T10:00:48;33.53;;;17.50;;
18274;SDS011;19470;49.322;7.218;2022-12-07T10:03:17;32.58;;;17.40;;
18274;SDS011;19470;49.322;7.218;2022-12-07T10:05:45;32.40;;;17.55;;
18274;SDS011;19470;49.322;7.218;2022-12-07T10:08:14;31.85;;;17.58;;
18274;SDS011;19470;49.322;7.218;2022-12-07T10:10:42;35.72;;;17.38;;
18274;SDS011;19470;49.322;7.218;2022-12-07T10:13:12;34.50;;;16.45;;
18274;SDS011;19470;49.322;7.218;2022-12-07T10:15:43;27.90;;;15.88;;
18274;SDS011;19470;49.322;7.218;2022-12-07T10:18:20;37.05;;;17.52;;
18274;SDS011;19470;49.322;7.218;2022-12-07T10:21:04;32.35;;;17.20;;
18274;SDS011;19470;49.322;7.218;2022-12-07T10:23:36;29.85;;;16.70;;
18274;SDS011;19470;49.322;7.218;2022-12-07T10:26:21;30.38;;;16.55;;
18274;SDS011;19470;49.322;7.218;2022-12-07T10:28:53;30.52;;;16.48;;
18274;SDS011;19470;49.322;7.218;2022-12-07T10:31:22;29.38;;;17.40;;
18274;SDS011;19470;49.322;7.218;2022-12-07T10:33:51;28.88;;;15.95;;
18274;SDS011;19470;49.322;7.218;2022-12-07T10:36:21;27.27;;;15.70;;
18274;SDS011;19470;49.322;7.218;2022-12-07T10:38:51;27.88;;;15.52;;
18274;SDS011;19470;49.322;7.218;2022-12-07T10:41:19;29.17;;;16.30;;
18274;SDS011;19470;49.322;7.218;2022-12-07T10:43:46;25.45;;;15.30;;
18274;SDS011;19470;49.322;7.218;2022-12-07T10:49:36;28.67;;;15.18;;
18274;SDS011;19470;49.322;7.218;2022-12-07T10:52:26;26.85;;;15.10;;
18274;SDS011;19470;49.322;7.218;2022-12-07T10:55:08;28.27;;;15.95;;
18274;SDS011;19470;49.322;7.218;2022-12-07T10:57:46;32.10;;;14.80;;
18274;SDS011;19470;49.322;7.218;2022-12-07T11:00:23;27.52;;;15.18;;
18274;SDS011;19470;49.322;7.218;2022-12-07T11:02:57;30.92;;;15.07;;
18274;SDS011;19470;49.322;7.218;2022-12-07T11:05:45;26.90;;;14.52;;
18274;SDS011;19470;49.322;7.218;2022-12-07T11:08:21;26.77;;;15.18;;
18274;SDS011;19470;49.322;7.218;2022-12-07T11:11:04;24.90;;;14.70;;
18274;SDS011;19470;49.322;7.218;2022-12-07T11:13:37;22.60;;;13.13;;
18274;SDS011;19470;49.322;7.218;2022-12-07T11:16:19;24.40;;;14.27;;
18274;SDS011;19470;49.322;7.218;2022-12-07T11:18:59;23.60;;;13.35;;
18274;SDS011;19470;49.322;7.218;2022-12-07T11:21:42;20.83;;;11.98;;
18274;SDS011;19470;49.322;7.218;2022-12-07T11:24:15;20.55;;;11.32;;
18274;SDS011;19470;49.322;7.218;2022-12-07T11:26:47;26.27;;;13.00;;
18274;SDS011;19470;49.322;7.218;2022-12-07T11:29:38;21.65;;;11.93;;
18274;SDS011;19470;49.322;7.218;2022-12-07T11:32:14;19.85;;;10.82;;
18274;SDS011;19470;49.322;7.218;2022-12-07T11:34:49;18.83;;;10.60;;
18274;SDS011;19470;49.322;7.218;2022-12-07T11:37:28;19.48;;;11.10;;
18274;SDS011;19470;49.322;7.218;2022-12-07T11:39:59;18.27;;;11.23;;
18274;SDS011;19470;49.322;7.218;2022-12-07T11:42:29;18.50;;;11.18;;
18274;SDS011;19470;49.322;7.218;2022-12-07T11:45:00;19.05;;;10.80;;
18274;SDS011;19470;49.322;7.218;2022-12-07T11:47:30;20.00;;;11.02;;
18274;SDS011;19470;49.322;7.218;2022-12-07T11:50:05;17.35;;;10.85;;
18274;SDS011;19470;49.322;7.218;2022-12-07T11:52:47;14.90;;;8.07;;
18274;SDS011;19470;49.322;7.218;2022-12-07T11:55:19;16.25;;;9.32;;
18274;SDS011;19470;49.322;7.218;2022-12-07T11:57:53;14.65;;;8.98;;
18274;SDS011;19470;49.322;7.218;2022-12-07T12:00:27;14.52;;;8.15;;
18274;SDS011;19470;49.322;7.218;2022-12-07T12:02:55;13.40;;;7.25;;
18274;SDS011;19470;49.322;7.218;2022-12-07T12:05:27;13.38;;;7.85;;
18274;SDS011;19470;49.322;7.218;2022-12-07T12:07:57;15.65;;;9.40;;
18274;SDS011;19470;49.322;7.218;2022-12-07T12:10:35;14.75;;;9.50;;
18274;SDS011;19470;49.322;7.218;2022-12-07T12:13:12;13.50;;;7.85;;
18274;SDS011;19470;49.322;7.218;2022-12-07T12:16:01;16.05;;;8.95;;
18274;SDS011;19470;49.322;7.218;2022-12-07T12:18:44;16.42;;;8.48;;
18274;SDS011;19470;49.322;7.218;2022-12-07T12:21:19;9.20;;;5.55;;
18274;SDS011;19470;49.322;7.218;2022-12-07T12:23:55;10.20;;;5.82;;
18274;SDS011;19470;49.322;7.218;2022-12-07T12:26:27;8.70;;;5.47;;
18274;SDS011;19470;49.322;7.218;2022-12-07T12:28:57;10.25;;;5.80;;
18274;SDS011;19470;49.322;7.218;2022-12-07T12:31:31;8.15;;;5.57;;
18274;SDS011;19470;49.322;7.218;2022-12-07T12:34:02;8.95;;;5.70;;
18274;SDS011;19470;49.322;7.218;2022-12-07T12:36:44;8.65;;;5.40;;
18274;SDS011;19470;49.322;7.218;2022-12-07T12:39:14;10.85;;;5.38;;
18274;SDS011;19470;49.322;7.218;2022-12-07T12:41:53;9.70;;;6.05;;
18274;SDS011;19470;49.322;7.218;2022-12-07T12:44:40;7.93;;;5.43;;
18274;SDS011;19470;49.322;7.218;2022-12-07T12:50:29;7.78;;;5.85;;
18274;SDS011;19470;49.322;7.218;2022-12-07T12:53:04;12.68;;;6.68;;
18274;SDS011;19470;49.322;7.218;2022-12-07T12:55:46;12.48;;;6.93;;
18274;SDS011;19470;49.322;7.218;2022-12-07T12:58:37;12.20;;;6.53;;
18274;SDS011;19470;49.322;7.218;2022-12-07T13:04:21;10.48;;;6.30;;
18274;SDS011;19470;49.322;7.218;2022-12-07T13:06:51;10.77;;;5.82;;
18274;SDS011;19470;49.322;7.218;2022-12-07T13:09:19;9.02;;;6.25;;
18274;SDS011;19470;49.322;7.218;2022-12-07T13:11:54;12.20;;;6.95;;
18274;SDS011;19470;49.322;7.218;2022-12-07T13:17:10;11.10;;;10.02;;
18274;SDS011;19470;49.322;7.218;2022-12-07T13:25:18;9.10;;;5.35;;
18274;SDS011;19470;49.322;7.218;2022-12-07T13:27:54;7.03;;;4.63;;
18274;SDS011;19470;49.322;7.218;2022-12-07T13:30:23;6.82;;;4.35;;
18274;SDS011;19470;49.322;7.218;2022-12-07T13:32:54;6.25;;;4.32;;
18274;SDS011;19470;49.322;7.218;2022-12-07T13:35:27;11.18;;;4.53;;
18274;SDS011;19470;49.322;7.218;2022-12-07T13:37:54;6.38;;;4.60;;
18274;SDS011;19470;49.322;7.218;2022-12-07T13:40:21;7.30;;;4.28;;
18274;SDS011;19470;49.322;7.218;2022-12-07T13:42:58;5.88;;;4.18;;
18274;SDS011;19470;49.322;7.218;2022-12-07T13:45:26;6.78;;;4.47;;
18274;SDS011;19470;49.322;7.218;2022-12-07T13:48:14;5.85;;;4.32;;
18274;SDS011;19470;49.322;7.218;2022-12-07T13:50:52;6.65;;;4.45;;
18274;SDS011;19470;49.322;7.218;2022-12-07T13:53:19;7.32;;;4.05;;
18274;SDS011;19470;49.322;7.218;2022-12-07T13:55:46;6.13;;;3.80;;
18274;SDS011;19470;49.322;7.218;2022-12-07T13:58:15;5.78;;;3.97;;
18274;SDS011;19470;49.322;7.218;2022-12-07T14:00:42;6.75;;;4.53;;
18274;SDS011;19470;49.322;7.218;2022-12-07T14:03:25;14.80;;;12.77;;
18274;SDS011;19470;49.322;7.218;2022-12-07T14:06:06;7.78;;;4.60;;
18274;SDS011;19470;49.322;7.218;2022-12-07T14:08:40;11.57;;;5.30;;
18274;SDS011;19470;49.322;7.218;2022-12-07T14:11:06;9.43;;;5.05;;
18274;SDS011;19470;49.322;7.218;2022-12-07T14:13:38;8.85;;;4.75;;
18274;SDS011;19470;49.322;7.218;2022-12-07T14:16:17;7.88;;;4.22;;
18274;SDS011;19470;49.322;7.218;2022-12-07T14:18:49;10.32;;;5.22;;
18274;SDS011;19470;49.322;7.218;2022-12-07T14:21:16;8.45;;;5.57;;
18274;SDS011;19470;49.322;7.218;2022-12-07T14:23:44;8.68;;;5.18;;
18274;SDS011;19470;49.322;7.218;2022-12-07T14:26:12;6.60;;;4.97;;
18274;SDS011;19470;49.322;7.218;2022-12-07T14:28:41;8.00;;;5.25;;
18274;SDS011;19470;49.322;7.218;2022-12-07T14:31:10;10.57;;;5.68;;
18274;SDS011;19470;49.322;7.218;2022-12-07T14:33:39;9.45;;;4.95;;
18274;SDS011;19470;49.322;7.218;2022-12-07T14:36:07;8.07;;;4.90;;
18274;SDS011;19470;49.322;7.218;2022-12-07T14:38:35;9.05;;;5.18;;
18274;SDS011;19470;49.322;7.218;2022-12-07T14:41:02;8.90;;;5.20;;
18274;SDS011;19470;49.322;7.218;2022-12-07T14:43:49;8.35;;;5.38;;
18274;SDS011;19470;49.322;7.218;2022-12-07T14:46:15;10.88;;;5.68;;
18274;SDS011;19470;49.322;7.218;2022-12-07T14:48:42;9.00;;;5.63;;
18274;SDS011;19470;49.322;7.218;2022-12-07T14:51:08;8.75;;;5.90;;
18274;SDS011;19470;49.322;7.218;2022-12-07T14:53:39;12.15;;;6.03;;
18274;SDS011;19470;49.322;7.218;2022-12-07T14:56:08;9.68;;;5.88;;
18274;SDS011;19470;49.322;7.218;2022-12-07T14:58:35;9.23;;;5.22;;
18274;SDS011;19470;49.322;7.218;2022-12-07T15:01:03;10.60;;;5.72;;
18274;SDS011;19470;49.322;7.218;2022-12-07T15:03:30;9.52;;;5.63;;
18274;SDS011;19470;49.322;7.218;2022-12-07T15:05:56;8.55;;;5.32;;
18274;SDS011;19470;49.322;7.218;2022-12-07T15:08:23;11.45;;;5.63;;
18274;SDS011;19470;49.322;7.218;2022-12-07T15:10:49;9.80;;;5.70;;